createdAt,value
2019-04-23T00:01:55.385Z,969.45
2019-04-23T00:02:48.585Z,969.48
2019-04-23T00:03:51.376Z,969.48
2019-04-23T00:04:34.996Z,969.51
2019-04-23T00:06:06.512Z,969.42
2019-04-23T00:06:57.202Z,969.39
2019-04-23T00:08:05.761Z,969.48
2019-04-23T00:09:06.398Z,969.34
2019-04-23T00:10:03.261Z,969.34
2019-04-23T00:10:58.241Z,969.34
2019-04-23T00:12:58.224Z,969.31
2019-04-23T00:14:05.397Z,969.19
2019-04-23T00:15:04.215Z,969.45
2019-04-23T00:18:49.159Z,969.25
2019-04-23T00:21:45.725Z,969.20
2019-04-23T00:22:51.457Z,969.20
2019-04-23T00:24:09.854Z,969.09
2019-04-23T00:25:32.860Z,969.20
2019-04-23T00:26:07.658Z,969.17
2019-04-23T00:27:05.580Z,969.14
2019-04-23T00:28:06.346Z,969.17
2019-04-23T00:28:58.671Z,969.17
2019-04-23T00:30:00.655Z,969.20
2019-04-23T00:30:54.803Z,969.31
2019-04-23T00:31:31.012Z,969.00
2019-04-23T00:32:55.234Z,969.03
2019-04-23T00:33:40.692Z,969.03
2019-04-23T00:34:54.463Z,969.06
2019-04-23T00:35:43.093Z,968.97
2019-04-23T00:36:50.949Z,969.09
2019-04-23T00:37:54.686Z,968.86
2019-04-23T00:39:52.121Z,968.95
2019-04-23T00:40:50.738Z,969.06
2019-04-23T00:42:53.049Z,968.95
2019-04-23T00:44:00.414Z,968.90
2019-04-23T00:44:56.112Z,968.75
2019-04-23T00:45:59.095Z,968.87
2019-04-23T00:46:54.242Z,968.87
2019-04-23T00:47:49.426Z,968.93
2019-04-23T00:48:57.398Z,968.87
2019-04-23T00:52:49.791Z,968.87
2019-04-23T00:53:26.463Z,968.90
2019-04-23T00:54:56.863Z,968.93
2019-04-23T00:57:00.527Z,968.96
2019-04-23T00:57:57.638Z,968.96
2019-04-23T00:58:54.459Z,968.84
2019-04-23T01:00:09.961Z,968.69
2019-04-23T01:00:57.574Z,968.88
2019-04-23T01:02:58.777Z,968.76
2019-04-23T01:03:39.245Z,968.76
2019-04-23T01:04:55.642Z,968.73
2019-04-23T01:05:46.478Z,968.71
2019-04-23T01:06:57.871Z,968.76
2019-04-23T01:07:49.587Z,968.66
2019-04-23T01:08:50.566Z,968.79
2019-04-23T01:11:43.161Z,968.73
2019-04-23T01:14:00.642Z,968.69
2019-04-23T01:14:47.984Z,968.57
2019-04-23T01:16:42.329Z,968.60
2019-04-23T01:18:01.773Z,968.63
2019-04-23T01:19:54.230Z,968.57
2019-04-23T01:20:52.394Z,968.43
2019-04-23T01:21:07.430Z,968.49
2019-04-23T01:22:06.754Z,968.54
2019-04-23T01:23:07.348Z,968.37
2019-04-23T01:24:17.674Z,968.48
2019-04-23T01:25:20.863Z,968.49
2019-04-23T01:26:49.877Z,968.29
2019-04-23T01:28:01.724Z,968.34
2019-04-23T01:28:47.515Z,968.46
2019-04-23T01:32:20.212Z,968.46
2019-04-23T01:32:36.346Z,968.43
2019-04-23T01:33:50.011Z,968.42
2019-04-23T01:35:06.419Z,968.34
2019-04-23T01:35:47.778Z,968.37
2019-04-23T01:36:35.391Z,968.34
2019-04-23T01:37:50.364Z,968.31
2019-04-23T01:38:38.784Z,968.34
2019-04-23T01:39:57.155Z,968.25
2019-04-23T01:41:00.152Z,968.34
2019-04-23T01:41:39.610Z,968.28
2019-04-23T01:42:47.701Z,968.22
2019-04-23T01:43:50.122Z,968.17
2019-04-23T01:45:06.567Z,968.19
2019-04-23T01:45:48.986Z,968.33
2019-04-23T01:47:59.437Z,968.08
2019-04-23T01:48:40.245Z,968.16
2019-04-23T01:50:43.258Z,968.22
2019-04-23T01:51:59.936Z,968.07
2019-04-23T01:52:58.912Z,968.10
2019-04-23T01:53:49.384Z,968.24
2019-04-23T01:55:00.671Z,967.96
2019-04-23T01:55:41.988Z,968.30
2019-04-23T01:56:54.593Z,968.21
2019-04-23T01:58:20.042Z,968.07
2019-04-23T01:59:10.629Z,968.07
2019-04-23T01:59:38.408Z,968.07
2019-04-23T02:00:40.545Z,967.98
2019-04-23T02:02:55.265Z,968.07
2019-04-23T02:05:41.033Z,968.07
2019-04-23T02:06:38.455Z,967.90
2019-04-23T02:07:56.193Z,967.75
2019-04-23T02:08:46.861Z,967.84
2019-04-23T02:10:13.704Z,967.95
2019-04-23T02:11:56.702Z,967.81
2019-04-23T02:13:10.306Z,967.95
2019-04-23T02:14:54.522Z,967.90
2019-04-23T02:15:56.820Z,967.81
2019-04-23T02:16:54.944Z,967.81
2019-04-23T02:17:51.892Z,967.79
2019-04-23T02:18:47.278Z,967.87
2019-04-23T02:20:42.616Z,967.87
2019-04-23T02:23:18.139Z,967.87
2019-04-23T02:23:53.428Z,967.59
2019-04-23T02:25:12.999Z,967.81
2019-04-23T02:26:02.344Z,967.67
2019-04-23T02:26:43.323Z,967.62
2019-04-23T02:27:41.894Z,967.56
2019-04-23T02:28:58.935Z,967.65
2019-04-23T02:30:25.858Z,967.56
2019-04-23T02:31:48.728Z,967.59
2019-04-23T02:32:28.648Z,967.56
2019-04-23T02:33:28.517Z,967.62
2019-04-23T02:33:49.286Z,967.70
2019-04-23T02:34:57.373Z,967.56
2019-04-23T02:36:22.499Z,967.50
2019-04-23T02:36:59.347Z,967.56
2019-04-23T02:38:39.946Z,967.59
2019-04-23T02:38:49.524Z,967.56
2019-04-23T02:39:49.250Z,967.59
2019-04-23T02:41:08.367Z,967.62
2019-04-23T02:43:19.876Z,967.62
2019-04-23T02:43:31.977Z,967.48
2019-04-23T02:46:58.583Z,967.42
2019-04-23T02:48:52.402Z,967.59
2019-04-23T02:50:30.681Z,967.45
2019-04-23T02:50:52.946Z,967.48
2019-04-23T02:51:41.734Z,967.42
2019-04-23T02:54:49.890Z,967.48
2019-04-23T02:55:48.340Z,967.26
2019-04-23T02:56:46.188Z,967.32
2019-04-23T03:01:14.348Z,967.27
2019-04-23T03:01:39.043Z,967.35
2019-04-23T03:03:49.059Z,967.21
2019-04-23T03:04:49.691Z,967.18
2019-04-23T03:05:45.013Z,967.27
2019-04-23T03:07:00.837Z,967.30
2019-04-23T03:07:44.823Z,967.19
2019-04-23T03:09:19.932Z,967.19
2019-04-23T03:09:44.257Z,967.24
2019-04-23T03:11:15.209Z,967.13
2019-04-23T03:12:14.522Z,967.13
2019-04-23T03:12:46.309Z,967.19
2019-04-23T03:14:48.710Z,967.00
2019-04-23T03:16:00.259Z,967.16
2019-04-23T03:17:02.508Z,967.25
2019-04-23T03:18:20.297Z,967.05
2019-04-23T03:19:09.309Z,967.00
2019-04-23T03:20:07.280Z,967.22
2019-04-23T03:22:13.786Z,967.02
2019-04-23T03:22:55.512Z,967.05
2019-04-23T03:24:09.052Z,967.00
2019-04-23T03:26:24.828Z,967.02
2019-04-23T03:27:21.067Z,967.05
2019-04-23T03:28:20.893Z,967.00
2019-04-23T03:29:31.033Z,967.00
2019-04-23T03:33:52.168Z,967.02
2019-04-23T03:35:07.817Z,966.95
2019-04-23T03:36:08.920Z,966.98
2019-04-23T03:37:16.015Z,966.89
2019-04-23T03:37:55.411Z,966.98
2019-04-23T03:38:48.104Z,966.89
2019-04-23T03:40:13.095Z,967.01
2019-04-23T03:41:06.404Z,966.87
2019-04-23T03:42:09.317Z,966.81
2019-04-23T03:42:46.790Z,966.90
2019-04-23T03:43:50.897Z,966.95
2019-04-23T03:45:15.716Z,966.81
2019-04-23T03:46:29.089Z,966.81
2019-04-23T03:46:49.409Z,966.84
2019-04-23T03:48:05.410Z,966.73
2019-04-23T03:49:05.314Z,966.84
2019-04-23T03:50:14.520Z,966.75
2019-04-23T03:51:01.038Z,966.81
2019-04-23T03:52:11.818Z,966.76
2019-04-23T03:52:53.231Z,967.01
2019-04-23T03:53:51.972Z,966.73
2019-04-23T03:55:18.151Z,966.76
2019-04-23T03:56:10.586Z,966.73
2019-04-23T03:56:51.837Z,966.64
2019-04-23T03:57:37.818Z,966.70
2019-04-23T03:58:42.266Z,966.73
2019-04-23T04:00:24.365Z,966.79
2019-04-23T04:02:08.734Z,966.70
2019-04-23T04:04:36.328Z,966.79
2019-04-23T04:04:44.223Z,966.73
2019-04-23T04:05:55.882Z,966.73
2019-04-23T04:08:17.768Z,966.93
2019-04-23T04:09:33.908Z,966.76
2019-04-23T04:10:15.498Z,966.68
2019-04-23T04:11:14.047Z,966.90
2019-04-23T04:11:44.686Z,966.76
2019-04-23T04:13:06.337Z,966.71
2019-04-23T04:13:50.246Z,966.82
2019-04-23T04:14:53.077Z,966.82
2019-04-23T04:16:26.336Z,966.74
2019-04-23T04:17:09.160Z,966.68
2019-04-23T04:18:09.102Z,966.74
2019-04-23T04:19:46.558Z,966.74
2019-04-23T04:21:13.637Z,966.77
2019-04-23T04:21:47.447Z,966.77
2019-04-23T04:22:58.992Z,966.80
2019-04-23T04:24:26.868Z,966.80
2019-04-23T04:25:25.745Z,966.77
2019-04-23T04:25:46.515Z,966.68
2019-04-23T04:27:12.057Z,966.74
2019-04-23T04:27:53.598Z,966.65
2019-04-23T04:29:08.547Z,966.74
2019-04-23T04:30:27.066Z,966.80
2019-04-23T04:30:47.967Z,966.71
2019-04-23T04:35:12.009Z,966.60
2019-04-23T04:36:13.841Z,966.49
2019-04-23T04:37:34.354Z,966.57
2019-04-23T04:38:44.681Z,966.49
2019-04-23T04:40:28.756Z,966.63
2019-04-23T04:43:04.049Z,966.48
2019-04-23T04:45:29.808Z,966.54
2019-04-23T04:46:04.114Z,966.48
2019-04-23T04:47:09.287Z,966.48
2019-04-23T04:48:07.106Z,966.53
2019-04-23T04:49:01.145Z,966.50
2019-04-23T04:49:50.758Z,966.32
2019-04-23T04:50:48.937Z,966.48
2019-04-23T04:52:55.731Z,966.56
2019-04-23T04:54:00.593Z,966.52
2019-04-23T04:54:49.573Z,966.46
2019-04-23T04:56:28.936Z,966.39
2019-04-23T04:57:19.740Z,966.41
2019-04-23T04:57:52.016Z,966.55
2019-04-23T04:59:13.116Z,966.43
2019-04-23T05:01:22.162Z,966.45
2019-04-23T05:01:48.020Z,966.44
2019-04-23T05:03:00.848Z,966.61
2019-04-23T05:03:59.759Z,966.43
2019-04-23T05:06:50.928Z,966.50
2019-04-23T05:08:04.539Z,966.49
2019-04-23T05:09:18.927Z,966.38
2019-04-23T05:10:51.098Z,966.45
2019-04-23T05:12:22.659Z,966.45
2019-04-23T05:13:29.927Z,966.64
2019-04-23T05:13:49.589Z,966.46
2019-04-23T05:15:06.679Z,966.49
2019-04-23T05:15:44.138Z,966.42
2019-04-23T05:17:15.098Z,966.36
2019-04-23T05:17:51.368Z,966.44
2019-04-23T05:20:04.352Z,966.38
2019-04-23T05:20:42.758Z,966.57
2019-04-23T05:22:13.972Z,966.43
2019-04-23T05:23:19.112Z,966.51
2019-04-23T05:23:59.125Z,966.51
2019-04-23T05:24:50.881Z,966.45
2019-04-23T05:25:37.641Z,966.53
2019-04-23T05:26:53.087Z,966.41
2019-04-23T05:28:02.557Z,966.32
2019-04-23T05:28:59.375Z,966.58
2019-04-23T05:29:52.942Z,966.52
2019-04-23T05:31:52.746Z,966.37
2019-04-23T05:33:11.442Z,966.34
2019-04-23T05:34:55.323Z,966.45
2019-04-23T05:36:19.921Z,966.39
2019-04-23T05:36:38.759Z,966.32
2019-04-23T05:38:28.910Z,966.29
2019-04-23T05:39:15.328Z,966.31
2019-04-23T05:40:14.009Z,966.36
2019-04-23T05:40:53.381Z,966.30
2019-04-23T05:41:39.720Z,966.41
2019-04-23T05:44:15.269Z,966.43
2019-04-23T05:44:38.136Z,966.31
2019-04-23T05:45:55.019Z,966.42
2019-04-23T05:49:05.853Z,966.34
2019-04-23T05:49:50.311Z,966.45
2019-04-23T05:51:17.685Z,966.31
2019-04-23T05:51:41.813Z,966.53
2019-04-23T05:52:58.903Z,966.38
2019-04-23T05:53:57.785Z,966.38
2019-04-23T05:55:07.315Z,966.47
2019-04-23T05:56:01.399Z,966.52
2019-04-23T05:56:38.105Z,966.46
2019-04-23T05:57:51.818Z,966.49
2019-04-23T05:58:57.599Z,966.56
2019-04-23T06:00:01.953Z,966.50
2019-04-23T06:01:19.401Z,966.55
2019-04-23T06:05:03.118Z,966.43
2019-04-23T06:05:53.867Z,966.37
2019-04-23T06:07:21.701Z,966.42
2019-04-23T06:08:52.645Z,966.41
2019-04-23T06:09:30.189Z,966.50
2019-04-23T06:11:59.530Z,966.38
2019-04-23T06:13:04.335Z,966.29
2019-04-23T06:14:05.023Z,966.29
2019-04-23T06:14:38.528Z,966.26
2019-04-23T06:15:57.549Z,966.25
2019-04-23T06:17:03.059Z,966.34
2019-04-23T06:17:53.762Z,966.28
2019-04-23T06:19:32.541Z,966.31
2019-04-23T06:21:08.800Z,966.31
2019-04-23T06:22:15.028Z,966.28
2019-04-23T06:23:13.138Z,966.22
2019-04-23T06:23:57.757Z,965.99
2019-04-23T06:24:57.675Z,966.22
2019-04-23T06:27:06.526Z,966.19
2019-04-23T06:27:37.689Z,966.25
2019-04-23T06:28:57.280Z,966.24
2019-04-23T06:29:55.829Z,966.12
2019-04-23T06:31:14.891Z,966.15
2019-04-23T06:32:37.048Z,966.17
2019-04-23T06:35:03.385Z,966.14
2019-04-23T06:36:56.672Z,966.05
2019-04-23T06:38:51.809Z,966.07
2019-04-23T06:39:41.123Z,966.07
2019-04-23T06:40:40.313Z,966.16
2019-04-23T06:41:49.555Z,966.10
2019-04-23T06:42:51.907Z,966.04
2019-04-23T06:44:05.632Z,966.06
2019-04-23T06:44:59.398Z,966.09
2019-04-23T06:45:57.320Z,966.06
2019-04-23T06:47:02.742Z,966.03
2019-04-23T06:47:53.809Z,966.16
2019-04-23T06:48:40.316Z,966.05
2019-04-23T06:49:43.593Z,966.16
2019-04-23T06:51:11.018Z,966.07
2019-04-23T06:52:08.128Z,966.03
2019-04-23T06:52:31.211Z,966.06
2019-04-23T06:54:02.903Z,966.03
2019-04-23T06:55:08.423Z,966.14
2019-04-23T06:57:25.340Z,966.11
2019-04-23T06:59:35.113Z,966.10
2019-04-23T07:01:04.724Z,966.16
2019-04-23T07:02:05.959Z,966.10
2019-04-23T07:03:43.046Z,966.01
2019-04-23T07:04:56.577Z,965.92
2019-04-23T07:07:23.713Z,965.97
2019-04-23T07:08:22.251Z,966.00
2019-04-23T07:09:12.978Z,966.03
2019-04-23T07:09:51.468Z,966.06
2019-04-23T07:11:07.321Z,965.97
2019-04-23T07:12:03.834Z,966.09
2019-04-23T07:12:55.593Z,966.00
2019-04-23T07:14:02.173Z,965.88
2019-04-23T07:15:04.289Z,966.00
2019-04-23T07:16:08.988Z,966.05
2019-04-23T07:16:52.232Z,966.08
2019-04-23T07:17:47.534Z,966.14
2019-04-23T07:20:00.045Z,966.22
2019-04-23T07:20:39.787Z,966.14
2019-04-23T07:21:50.441Z,965.99
2019-04-23T07:23:04.671Z,965.97
2019-04-23T07:23:58.533Z,966.00
2019-04-23T07:24:47.031Z,966.00
2019-04-23T07:27:01.078Z,965.94
2019-04-23T07:27:56.265Z,965.82
2019-04-23T07:28:43.387Z,965.93
2019-04-23T07:30:01.302Z,965.82
2019-04-23T07:31:07.189Z,965.93
2019-04-23T07:31:40.749Z,966.02
2019-04-23T07:33:03.880Z,965.87
2019-04-23T07:35:59.730Z,965.98
2019-04-23T07:36:47.135Z,965.90
2019-04-23T07:37:39.866Z,965.92
2019-04-23T07:39:15.397Z,965.92
2019-04-23T07:39:45.413Z,965.89
2019-04-23T07:41:16.336Z,965.86
2019-04-23T07:42:16.562Z,965.77
2019-04-23T07:42:41.403Z,965.79
2019-04-23T07:44:20.191Z,965.90
2019-04-23T07:45:09.218Z,965.73
2019-04-23T07:45:42.473Z,965.67
2019-04-23T07:47:11.108Z,965.67
2019-04-23T07:47:29.689Z,965.81
2019-04-23T07:48:39.952Z,965.75
2019-04-23T07:50:15.636Z,965.64
2019-04-23T07:50:42.246Z,965.84
2019-04-23T07:51:46.581Z,965.66
2019-04-23T07:53:12.435Z,965.66
2019-04-23T07:54:00.013Z,965.78
2019-04-23T07:55:00.442Z,965.78
2019-04-23T07:55:47.991Z,965.58
2019-04-23T07:58:33.033Z,965.71
2019-04-23T08:00:07.238Z,965.60
2019-04-23T08:01:03.199Z,965.70
2019-04-23T08:01:48.753Z,965.70
2019-04-23T08:03:05.175Z,965.61
2019-04-23T08:04:08.356Z,965.81
2019-04-23T08:05:07.454Z,965.72
2019-04-23T08:05:38.504Z,965.74
2019-04-23T08:06:37.185Z,965.66
2019-04-23T08:07:42.133Z,965.63
2019-04-23T08:08:41.565Z,965.77
2019-04-23T08:10:07.828Z,965.63
2019-04-23T08:11:44.124Z,965.67
2019-04-23T08:12:57.980Z,965.56
2019-04-23T08:13:56.778Z,965.61
2019-04-23T08:14:59.546Z,965.69
2019-04-23T08:15:41.300Z,965.72
2019-04-23T08:16:57.757Z,965.72
2019-04-23T08:18:06.041Z,965.66
2019-04-23T08:18:36.021Z,965.53
2019-04-23T08:20:41.851Z,965.53
2019-04-23T08:22:06.308Z,965.69
2019-04-23T08:23:01.636Z,965.63
2019-04-23T08:24:06.404Z,965.60
2019-04-23T08:26:19.204Z,965.58
2019-04-23T08:27:09.609Z,965.58
2019-04-23T08:28:04.632Z,965.71
2019-04-23T08:29:07.481Z,965.77
2019-04-23T08:29:47.524Z,965.62
2019-04-23T08:32:06.662Z,965.65
2019-04-23T08:32:56.662Z,965.70
2019-04-23T08:34:16.386Z,965.64
2019-04-23T08:34:58.299Z,965.61
2019-04-23T08:36:54.668Z,965.74
2019-04-23T08:38:25.625Z,965.60
2019-04-23T08:38:42.442Z,965.68
2019-04-23T08:39:38.171Z,965.68
2019-04-23T08:41:02.365Z,965.68
2019-04-23T08:41:51.342Z,965.62
2019-04-23T08:43:00.157Z,965.57
2019-04-23T08:44:15.183Z,965.60
2019-04-23T08:46:50.702Z,965.67
2019-04-23T08:47:31.471Z,965.76
2019-04-23T08:49:02.790Z,965.67
2019-04-23T08:49:40.207Z,965.76
2019-04-23T08:50:48.906Z,965.57
2019-04-23T08:51:51.276Z,965.54
2019-04-23T08:52:50.493Z,965.48
2019-04-23T08:53:55.262Z,965.67
2019-04-23T08:54:47.698Z,965.51
2019-04-23T08:56:01.773Z,965.61
2019-04-23T08:57:08.468Z,965.64
2019-04-23T08:57:46.592Z,965.64
2019-04-23T08:59:06.530Z,965.48
2019-04-23T09:00:45.372Z,965.59
2019-04-23T09:03:45.615Z,965.53
2019-04-23T09:04:59.571Z,965.56
2019-04-23T09:05:44.606Z,965.45
2019-04-23T09:07:03.835Z,965.42
2019-04-23T09:07:53.566Z,965.47
2019-04-23T09:09:03.980Z,965.47
2019-04-23T09:10:04.223Z,965.53
2019-04-23T09:11:16.226Z,965.47
2019-04-23T09:12:15.953Z,965.32
2019-04-23T09:13:53.099Z,965.55
2019-04-23T09:14:57.857Z,965.44
2019-04-23T09:16:08.272Z,965.52
2019-04-23T09:16:40.861Z,965.49
2019-04-23T09:18:09.105Z,965.55
2019-04-23T09:18:52.465Z,965.55
2019-04-23T09:20:54.560Z,965.52
2019-04-23T09:21:39.735Z,965.37
2019-04-23T09:22:49.863Z,965.49
2019-04-23T09:23:39.012Z,965.46
2019-04-23T09:25:11.391Z,965.40
2019-04-23T09:25:40.419Z,965.43
2019-04-23T09:26:58.101Z,965.37
2019-04-23T09:27:59.178Z,965.31
2019-04-23T09:28:44.593Z,965.51
2019-04-23T09:29:59.876Z,965.39
2019-04-23T09:31:10.098Z,965.39
2019-04-23T09:32:24.694Z,965.25
2019-04-23T09:33:05.634Z,965.39
2019-04-23T09:34:04.711Z,965.42
2019-04-23T09:35:52.308Z,965.30
2019-04-23T09:37:09.904Z,965.39
2019-04-23T09:38:06.888Z,965.24
2019-04-23T09:38:52.288Z,965.30
2019-04-23T09:40:08.658Z,965.47
2019-04-23T09:41:21.671Z,965.55
2019-04-23T09:42:02.058Z,965.35
2019-04-23T09:43:00.284Z,965.29
2019-04-23T09:43:45.058Z,965.34
2019-04-23T09:46:04.283Z,965.36
2019-04-23T09:46:04.287Z,965.28
2019-04-23T09:47:06.387Z,965.45
2019-04-23T09:47:45.373Z,965.22
2019-04-23T09:49:05.372Z,965.45
2019-04-23T09:50:00.699Z,965.30
2019-04-23T09:50:53.649Z,965.27
2019-04-23T09:51:50.874Z,965.24
2019-04-23T09:53:09.466Z,965.19
2019-04-23T09:55:04.260Z,965.18
2019-04-23T09:55:59.539Z,965.21
2019-04-23T09:56:56.821Z,965.12
2019-04-23T09:57:42.994Z,965.35
2019-04-23T09:59:48.662Z,965.18
2019-04-23T10:00:50.890Z,965.38
2019-04-23T10:01:49.575Z,965.26
2019-04-23T10:02:40.796Z,965.17
2019-04-23T10:03:38.430Z,965.20
2019-04-23T10:04:30.856Z,965.23
2019-04-23T10:05:36.895Z,965.25
2019-04-23T10:06:20.744Z,965.14
2019-04-23T10:07:34.611Z,965.16
2019-04-23T10:08:24.106Z,965.22
2019-04-23T10:09:10.102Z,965.21
2019-04-23T10:10:05.759Z,965.24
2019-04-23T10:11:06.973Z,965.30
2019-04-23T10:12:07.147Z,965.26
2019-04-23T10:13:07.913Z,965.29
2019-04-23T10:14:06.408Z,965.26
2019-04-23T10:15:22.467Z,965.26
2019-04-23T10:16:06.409Z,965.32
2019-04-23T10:17:08.328Z,965.31
2019-04-23T10:18:05.249Z,965.11
2019-04-23T10:19:07.967Z,965.16
2019-04-23T10:20:06.641Z,965.07
2019-04-23T10:21:07.570Z,965.13
2019-04-23T10:22:05.410Z,965.07
2019-04-23T10:23:06.496Z,965.10
2019-04-23T10:24:07.381Z,965.01
2019-04-23T10:25:06.662Z,965.10
2019-04-23T10:26:07.837Z,965.18
2019-04-23T10:27:05.779Z,965.07
2019-04-23T10:28:10.882Z,965.24
2019-04-23T10:29:07.610Z,965.07
2019-04-23T10:30:07.929Z,965.18
2019-04-23T10:31:06.936Z,965.18
2019-04-23T10:32:04.870Z,965.12
2019-04-23T10:33:07.393Z,965.04
2019-04-23T10:34:05.974Z,964.98
2019-04-23T10:35:21.999Z,965.12
2019-04-23T10:36:13.608Z,965.09
2019-04-23T10:37:07.153Z,964.94
2019-04-23T10:38:14.730Z,965.03
2019-04-23T10:39:21.295Z,965.14
2019-04-23T10:40:19.196Z,964.97
2019-04-23T10:41:06.761Z,965.17
2019-04-23T10:42:07.541Z,965.00
2019-04-23T10:43:07.790Z,965.05
2019-04-23T10:44:06.736Z,964.85
2019-04-23T10:45:34.329Z,965.06
2019-04-23T10:46:42.435Z,964.78
2019-04-23T10:47:51.870Z,965.03
2019-04-23T10:49:52.810Z,965.06
2019-04-23T10:50:45.847Z,965.09
2019-04-23T10:53:18.502Z,964.97
2019-04-23T10:54:01.179Z,965.00
2019-04-23T10:54:44.592Z,965.03
2019-04-23T10:56:00.433Z,964.91
2019-04-23T10:56:50.856Z,965.00
2019-04-23T10:57:52.692Z,964.94
2019-04-23T10:58:38.174Z,965.05
2019-04-23T10:59:57.819Z,965.05
2019-04-23T11:00:58.086Z,964.97
2019-04-23T11:02:23.415Z,965.02
2019-04-23T11:03:56.088Z,965.08
2019-04-23T11:05:15.529Z,965.09
2019-04-23T11:06:44.933Z,964.92
2019-04-23T11:07:33.765Z,965.04
2019-04-23T11:08:47.565Z,964.90
2019-04-23T11:09:49.426Z,964.93
2019-04-23T11:10:54.541Z,965.02
2019-04-23T11:12:10.112Z,965.08
2019-04-23T11:13:10.298Z,964.88
2019-04-23T11:13:44.748Z,965.06
2019-04-23T11:14:57.207Z,965.09
2019-04-23T11:16:08.208Z,965.09
2019-04-23T11:17:32.606Z,964.91
2019-04-23T11:17:56.434Z,965.05
2019-04-23T11:19:01.404Z,964.94
2019-04-23T11:20:13.283Z,964.99
2019-04-23T11:21:27.253Z,964.84
2019-04-23T11:22:27.884Z,965.04
2019-04-23T11:22:47.531Z,965.13
2019-04-23T11:23:40.487Z,964.96
2019-04-23T11:25:20.216Z,965.02
2019-04-23T11:26:13.723Z,964.96
2019-04-23T11:28:04.211Z,965.05
2019-04-23T11:29:10.823Z,964.93
2019-04-23T11:30:07.939Z,965.02
2019-04-23T11:30:40.459Z,964.84
2019-04-23T11:32:25.961Z,965.04
2019-04-23T11:33:12.207Z,964.84
2019-04-23T11:33:50.490Z,964.96
2019-04-23T11:35:36.272Z,964.99
2019-04-23T11:36:40.921Z,965.10
2019-04-23T11:37:21.728Z,964.93
2019-04-23T11:38:20.249Z,965.05
2019-04-23T11:38:57.402Z,964.84
2019-04-23T11:40:15.180Z,964.84
2019-04-23T11:40:36.552Z,964.84
2019-04-23T11:41:50.791Z,964.98
2019-04-23T11:43:19.926Z,965.01
2019-04-23T11:44:45.554Z,964.87
2019-04-23T11:44:54.919Z,964.98
2019-04-23T11:46:14.347Z,964.89
2019-04-23T11:47:45.365Z,964.83
2019-04-23T11:48:59.218Z,964.76
2019-04-23T11:49:51.992Z,964.76
2019-04-23T11:51:45.717Z,964.70
2019-04-23T11:52:53.158Z,964.75
2019-04-23T11:53:54.090Z,964.85
2019-04-23T11:54:58.221Z,964.91
2019-04-23T11:55:44.470Z,964.66
2019-04-23T11:57:07.505Z,964.83
2019-04-23T11:58:11.314Z,964.70
2019-04-23T11:58:40.489Z,964.52
2019-04-23T11:59:57.120Z,964.67
2019-04-23T12:01:52.135Z,964.56
2019-04-23T12:02:57.812Z,964.62
2019-04-23T12:04:11.273Z,964.65
2019-04-23T12:05:26.421Z,964.65
2019-04-23T12:06:57.763Z,964.57
2019-04-23T12:07:48.087Z,964.66
2019-04-23T12:09:15.585Z,964.54
2019-04-23T12:10:00.577Z,964.68
2019-04-23T12:11:14.114Z,964.51
2019-04-23T12:12:23.362Z,964.62
2019-04-23T12:14:21.374Z,964.55
2019-04-23T12:14:44.843Z,964.66
2019-04-23T12:16:46.896Z,964.85
2019-04-23T12:17:46.569Z,964.67
2019-04-23T12:19:51.946Z,964.67
2019-04-23T12:20:26.571Z,964.61
2019-04-23T12:20:35.693Z,964.69
2019-04-23T12:22:06.303Z,964.66
2019-04-23T12:23:11.018Z,964.62
2019-04-23T12:24:13.522Z,964.59
2019-04-23T12:25:30.691Z,964.76
2019-04-23T12:25:44.112Z,964.67
2019-04-23T12:27:13.365Z,964.83
2019-04-23T12:27:32.959Z,964.75
2019-04-23T12:28:43.721Z,964.72
2019-04-23T12:29:59.675Z,964.49
2019-04-23T12:31:06.743Z,964.63
2019-04-23T12:31:45.073Z,964.75
2019-04-23T12:33:01.593Z,964.69
2019-04-23T12:36:01.900Z,964.72
2019-04-23T12:37:14.187Z,964.61
2019-04-23T12:37:59.629Z,964.58
2019-04-23T12:38:38.255Z,964.50
2019-04-23T12:40:13.879Z,964.56
2019-04-23T12:40:54.810Z,964.50
2019-04-23T12:42:33.965Z,964.53
2019-04-23T12:42:53.486Z,964.48
2019-04-23T12:43:56.467Z,964.59
2019-04-23T12:44:45.516Z,964.62
2019-04-23T12:45:35.316Z,964.63
2019-04-23T12:47:12.075Z,964.57
2019-04-23T12:47:49.028Z,964.40
2019-04-23T12:49:05.791Z,964.51
2019-04-23T12:50:44.656Z,964.57
2019-04-23T12:52:16.574Z,964.39
2019-04-23T12:52:39.406Z,964.42
2019-04-23T12:53:54.864Z,964.42
2019-04-23T12:56:07.993Z,964.42
2019-04-23T12:57:16.992Z,964.45
2019-04-23T12:58:09.253Z,964.53
2019-04-23T13:00:13.866Z,964.42
2019-04-23T13:00:57.094Z,964.36
2019-04-23T13:02:24.687Z,964.30
2019-04-23T13:02:54.941Z,964.50
2019-04-23T13:03:50.219Z,964.36
2019-04-23T13:05:08.793Z,964.41
2019-04-23T13:05:41.628Z,964.44
2019-04-23T13:07:57.368Z,964.18
2019-04-23T13:09:21.234Z,964.35
2019-04-23T13:09:52.346Z,964.35
2019-04-23T13:10:56.173Z,964.29
2019-04-23T13:12:08.390Z,964.29
2019-04-23T13:12:49.758Z,964.24
2019-04-23T13:15:15.427Z,964.24
2019-04-23T13:15:46.394Z,964.21
2019-04-23T13:16:43.189Z,964.24
2019-04-23T13:17:49.870Z,964.39
2019-04-23T13:18:55.242Z,964.24
2019-04-23T13:19:47.247Z,964.10
2019-04-23T13:20:36.471Z,964.13
2019-04-23T13:23:45.545Z,964.31
2019-04-23T13:25:01.688Z,964.22
2019-04-23T13:25:59.271Z,964.13
2019-04-23T13:27:08.154Z,964.07
2019-04-23T13:28:05.389Z,964.10
2019-04-23T13:28:37.047Z,964.15
2019-04-23T13:31:14.132Z,964.18
2019-04-23T13:33:05.290Z,964.17
2019-04-23T13:33:43.605Z,964.12
2019-04-23T13:35:07.762Z,964.00
2019-04-23T13:36:43.227Z,964.12
2019-04-23T13:37:58.618Z,964.15
2019-04-23T13:39:08.960Z,964.04
2019-04-23T13:40:06.672Z,964.04
2019-04-23T13:40:43.727Z,963.95
2019-04-23T13:41:38.478Z,964.00
2019-04-23T13:43:42.151Z,964.00
2019-04-23T13:45:15.668Z,963.94
2019-04-23T13:46:14.732Z,963.82
2019-04-23T13:46:48.934Z,964.10
2019-04-23T13:47:52.696Z,964.10
2019-04-23T13:48:41.310Z,964.04
2019-04-23T13:50:15.306Z,964.10
2019-04-23T13:52:22.315Z,964.04
2019-04-23T13:55:14.256Z,963.88
2019-04-23T13:56:00.588Z,964.07
2019-04-23T13:57:55.835Z,963.99
2019-04-23T13:58:26.357Z,963.93
2019-04-23T13:58:42.915Z,964.10
2019-04-23T14:00:04.691Z,964.05
2019-04-23T14:01:25.254Z,963.83
2019-04-23T14:01:45.895Z,963.83
2019-04-23T14:03:01.085Z,963.91
2019-04-23T14:03:40.366Z,963.94
2019-04-23T14:05:12.126Z,963.81
2019-04-23T14:05:59.349Z,963.87
2019-04-23T14:08:20.153Z,963.69
2019-04-23T14:10:09.819Z,963.78
2019-04-23T14:10:51.542Z,963.75
2019-04-23T14:12:53.179Z,963.84
2019-04-23T14:14:13.028Z,963.78
2019-04-23T14:15:19.020Z,963.66
2019-04-23T14:16:02.858Z,963.69
2019-04-23T14:16:47.714Z,963.57
2019-04-23T14:17:51.355Z,963.60
2019-04-23T14:18:55.815Z,963.60
2019-04-23T14:19:53.022Z,963.60
2019-04-23T14:20:38.161Z,963.54
2019-04-23T14:23:30.905Z,963.69
2019-04-23T14:24:25.869Z,963.81
2019-04-23T14:24:52.904Z,963.69
2019-04-23T14:26:08.186Z,963.57
2019-04-23T14:26:57.945Z,963.54
2019-04-23T14:28:21.449Z,963.54
2019-04-23T14:29:03.894Z,963.57
2019-04-23T14:30:19.926Z,963.57
2019-04-23T14:31:04.533Z,963.77
2019-04-23T14:32:59.234Z,963.60
2019-04-23T14:35:10.351Z,963.42
2019-04-23T14:36:07.400Z,963.65
2019-04-23T14:36:40.870Z,963.77
2019-04-23T14:38:28.846Z,963.54
2019-04-23T14:38:47.139Z,963.62
2019-04-23T14:40:12.083Z,963.65
2019-04-23T14:41:09.113Z,963.57
2019-04-23T14:41:56.205Z,963.56
2019-04-23T14:43:21.764Z,963.65
2019-04-23T14:43:48.461Z,963.53
2019-04-23T14:44:59.891Z,963.56
2019-04-23T14:47:23.203Z,963.62
2019-04-23T14:48:51.476Z,963.58
2019-04-23T14:51:12.983Z,963.70